Página principal
METAR-TAF:

METAR-TAF

Aeroportos :

Atenas, Grécia

Aeroporto Internacional de Atenas

latitude: 37-56N, longitude: 023-56E, altura: 94 m

Observação actual do tempo

O boletim foi feito há 30 minutos, às 14:50 UTC
Vento 7 kt de oes-sudoeste
Temperatura 15°C
Humidade 51%
Pressão 1016 hPa
Visibilidade 10 km ou mais
Poucas nuvensa uma altura de 2500 ft

METAR: LGAV 161450Z 24007KT 9999 FEW025 15/05 Q1016 NOSIG

Hora: 17:20 (15:20 UTC)

Previsão

O boletim foi feito há 4 horas e 20 minutos, às 11:00 UTC
Previsão válida de 16 às 12 UTC a 17 às 12 UTC
Vento 10 kt de sudoeste
Visibilidade 10 km ou mais
Poucas nuvensa uma altura de 1800 ft
Nuvens dispersasa uma altura de 3000 ft

TAF: LGAV 161100Z 1612/1712 23010KT 9999 FEW018 SCT030

Observações e previsões do tempo de mais de 4000 aeroportos (mensagens METAR e TAF).

As estações disponíveis são os pontos amarelos e vermelhos sobre o mapa.

Mova o rato sobre o mapa para ver o nome da estação.

Depois clique no ponto para visualizar as observações e previsões meteorológicas.

Para alterar o mapa : clique nos botões verdes com uma cruz preta para aumentar o zoom; no botão verde com uma pitada de zoom; ou nas setas verdes para mapas adjacentes.


METAR-TAF: